sensor_id;sensor_type;location;lat;lon;timestamp;P1;durP1;ratioP1;P2;durP2;ratioP2
2129;SDS011;1071;52.544;13.374;2024-01-07T00:01:03;6.70;;;5.03;;
2129;SDS011;1071;52.544;13.374;2024-01-07T00:03:30;7.90;;;5.07;;
2129;SDS011;1071;52.544;13.374;2024-01-07T00:05:58;6.90;;;5.13;;
2129;SDS011;1071;52.544;13.374;2024-01-07T00:08:35;11.23;;;9.18;;
2129;SDS011;1071;52.544;13.374;2024-01-07T00:11:45;12.38;;;10.00;;
2129;SDS011;1071;52.544;13.374;2024-01-07T00:14:23;11.45;;;6.63;;
2129;SDS011;1071;52.544;13.374;2024-01-07T00:17:34;9.02;;;6.90;;
2129;SDS011;1071;52.544;13.374;2024-01-07T00:20:12;10.30;;;8.52;;
2129;SDS011;1071;52.544;13.374;2024-01-07T00:23:04;11.77;;;5.40;;
2129;SDS011;1071;52.544;13.374;2024-01-07T00:26:11;5.53;;;5.00;;
2129;SDS011;1071;52.544;13.374;2024-01-07T00:28:42;9.63;;;4.88;;
2129;SDS011;1071;52.544;13.374;2024-01-07T00:31:16;8.90;;;5.03;;
2129;SDS011;1071;52.544;13.374;2024-01-07T00:33:44;6.20;;;4.75;;
2129;SDS011;1071;52.544;13.374;2024-01-07T00:39:08;5.00;;;4.22;;
2129;SDS011;1071;52.544;13.374;2024-01-07T00:41:41;4.55;;;3.80;;
2129;SDS011;1071;52.544;13.374;2024-01-07T00:44:23;7.15;;;4.28;;
2129;SDS011;1071;52.544;13.374;2024-01-07T00:47:19;4.05;;;3.35;;
2129;SDS011;1071;52.544;13.374;2024-01-07T00:50:24;4.05;;;2.85;;
2129;SDS011;1071;52.544;13.374;2024-01-07T00:53:27;4.47;;;3.75;;
2129;SDS011;1071;52.544;13.374;2024-01-07T00:56:10;3.58;;;2.55;;
2129;SDS011;1071;52.544;13.374;2024-01-07T01:02:52;3.80;;;3.30;;
2129;SDS011;1071;52.544;13.374;2024-01-07T01:05:08;2.80;;;2.58;;
2129;SDS011;1071;52.544;13.374;2024-01-07T01:07:41;4.13;;;3.30;;
2129;SDS011;1071;52.544;13.374;2024-01-07T01:10:11;4.80;;;2.75;;
2129;SDS011;1071;52.544;13.374;2024-01-07T01:13:03;7.93;;;3.33;;
2129;SDS011;1071;52.544;13.374;2024-01-07T01:15:44;4.32;;;3.65;;
2129;SDS011;1071;52.544;13.374;2024-01-07T01:18:15;4.20;;;2.90;;
2129;SDS011;1071;52.544;13.374;2024-01-07T01:20:56;5.55;;;3.42;;
2129;SDS011;1071;52.544;13.374;2024-01-07T01:23:43;5.10;;;3.05;;
2129;SDS011;1071;52.544;13.374;2024-01-07T01:32:49;4.22;;;3.03;;
2129;SDS011;1071;52.544;13.374;2024-01-07T01:35:25;5.95;;;2.88;;
2129;SDS011;1071;52.544;13.374;2024-01-07T01:37:56;3.50;;;3.00;;
2129;SDS011;1071;52.544;13.374;2024-01-07T01:40:25;4.18;;;3.22;;
2129;SDS011;1071;52.544;13.374;2024-01-07T01:43:02;3.70;;;3.30;;
2129;SDS011;1071;52.544;13.374;2024-01-07T01:48:30;5.03;;;3.78;;
2129;SDS011;1071;52.544;13.374;2024-01-07T01:51:01;4.75;;;4.00;;
2129;SDS011;1071;52.544;13.374;2024-01-07T01:53:40;4.13;;;3.70;;
2129;SDS011;1071;52.544;13.374;2024-01-07T01:56:17;3.42;;;2.65;;
2129;SDS011;1071;52.544;13.374;2024-01-07T01:58:46;3.75;;;3.10;;
2129;SDS011;1071;52.544;13.374;2024-01-07T02:01:13;5.70;;;3.53;;
2129;SDS011;1071;52.544;13.374;2024-01-07T02:03:42;7.57;;;4.28;;
2129;SDS011;1071;52.544;13.374;2024-01-07T02:06:14;3.50;;;3.17;;
2129;SDS011;1071;52.544;13.374;2024-01-07T02:08:44;5.38;;;3.20;;
2129;SDS011;1071;52.544;13.374;2024-01-07T02:11:17;4.88;;;2.75;;
2129;SDS011;1071;52.544;13.374;2024-01-07T02:13:48;5.72;;;3.10;;
2129;SDS011;1071;52.544;13.374;2024-01-07T02:16:21;4.28;;;2.95;;
2129;SDS011;1071;52.544;13.374;2024-01-07T02:18:48;5.22;;;3.92;;
2129;SDS011;1071;52.544;13.374;2024-01-07T02:21:19;2.88;;;2.55;;
2129;SDS011;1071;52.544;13.374;2024-01-07T02:24:05;4.10;;;3.70;;
2129;SDS011;1071;52.544;13.374;2024-01-07T02:26:33;4.13;;;3.00;;
2129;SDS011;1071;52.544;13.374;2024-01-07T02:29:02;2.53;;;2.22;;
2129;SDS011;1071;52.544;13.374;2024-01-07T02:34:09;3.65;;;2.95;;
2129;SDS011;1071;52.544;13.374;2024-01-07T02:36:39;3.00;;;2.70;;
2129;SDS011;1071;52.544;13.374;2024-01-07T02:39:10;4.25;;;2.70;;
2129;SDS011;1071;52.544;13.374;2024-01-07T02:41:45;3.63;;;2.17;;
2129;SDS011;1071;52.544;13.374;2024-01-07T02:44:14;2.90;;;2.70;;
2129;SDS011;1071;52.544;13.374;2024-01-07T02:46:53;3.40;;;3.05;;
2129;SDS011;1071;52.544;13.374;2024-01-07T02:49:31;2.13;;;2.03;;
2129;SDS011;1071;52.544;13.374;2024-01-07T02:51:58;2.75;;;2.28;;
2129;SDS011;1071;52.544;13.374;2024-01-07T02:54:26;2.53;;;2.30;;
2129;SDS011;1071;52.544;13.374;2024-01-07T02:56:53;2.72;;;2.53;;
2129;SDS011;1071;52.544;13.374;2024-01-07T02:59:20;4.47;;;1.90;;
2129;SDS011;1071;52.544;13.374;2024-01-07T03:01:50;3.08;;;2.25;;
2129;SDS011;1071;52.544;13.374;2024-01-07T03:04:37;2.17;;;1.95;;
2129;SDS011;1071;52.544;13.374;2024-01-07T03:07:10;2.95;;;2.65;;
2129;SDS011;1071;52.544;13.374;2024-01-07T03:12:53;4.78;;;2.30;;
2129;SDS011;1071;52.544;13.374;2024-01-07T03:15:20;4.65;;;2.45;;
2129;SDS011;1071;52.544;13.374;2024-01-07T03:18:06;6.53;;;3.00;;
2129;SDS011;1071;52.544;13.374;2024-01-07T03:20:33;2.78;;;2.22;;
2129;SDS011;1071;52.544;13.374;2024-01-07T03:23:06;5.57;;;3.47;;
2129;SDS011;1071;52.544;13.374;2024-01-07T03:25:38;5.65;;;3.20;;
2129;SDS011;1071;52.544;13.374;2024-01-07T03:28:11;2.90;;;2.67;;
2129;SDS011;1071;52.544;13.374;2024-01-07T03:30:38;4.18;;;2.60;;
2129;SDS011;1071;52.544;13.374;2024-01-07T03:33:14;3.97;;;2.92;;
2129;SDS011;1071;52.544;13.374;2024-01-07T03:35:46;3.78;;;2.28;;
2129;SDS011;1071;52.544;13.374;2024-01-07T03:38:19;3.50;;;2.58;;
2129;SDS011;1071;52.544;13.374;2024-01-07T03:41:23;5.80;;;3.58;;
2129;SDS011;1071;52.544;13.374;2024-01-07T03:43:50;7.60;;;2.70;;
2129;SDS011;1071;52.544;13.374;2024-01-07T03:46:18;8.70;;;2.90;;
2129;SDS011;1071;52.544;13.374;2024-01-07T03:48:45;3.40;;;2.70;;
2129;SDS011;1071;52.544;13.374;2024-01-07T03:51:25;3.15;;;2.42;;
2129;SDS011;1071;52.544;13.374;2024-01-07T03:53:57;3.75;;;2.78;;
2129;SDS011;1071;52.544;13.374;2024-01-07T03:59:51;2.50;;;2.30;;
2129;SDS011;1071;52.544;13.374;2024-01-07T04:02:43;2.75;;;2.50;;
2129;SDS011;1071;52.544;13.374;2024-01-07T04:05:16;2.65;;;2.45;;
2129;SDS011;1071;52.544;13.374;2024-01-07T04:07:43;3.05;;;2.60;;
2129;SDS011;1071;52.544;13.374;2024-01-07T04:10:12;1.95;;;1.80;;
2129;SDS011;1071;52.544;13.374;2024-01-07T04:12:42;3.72;;;2.20;;
2129;SDS011;1071;52.544;13.374;2024-01-07T04:15:13;3.05;;;2.15;;
2129;SDS011;1071;52.544;13.374;2024-01-07T04:17:46;2.50;;;2.25;;
2129;SDS011;1071;52.544;13.374;2024-01-07T04:20:14;4.35;;;3.03;;
2129;SDS011;1071;52.544;13.374;2024-01-07T04:22:42;3.08;;;2.47;;
2129;SDS011;1071;52.544;13.374;2024-01-07T04:25:13;2.53;;;2.22;;
2129;SDS011;1071;52.544;13.374;2024-01-07T04:27:43;3.40;;;2.58;;
2129;SDS011;1071;52.544;13.374;2024-01-07T04:30:23;3.42;;;2.72;;
2129;SDS011;1071;52.544;13.374;2024-01-07T04:32:50;3.53;;;3.15;;
2129;SDS011;1071;52.544;13.374;2024-01-07T04:35:23;2.47;;;2.13;;
2129;SDS011;1071;52.544;13.374;2024-01-07T04:37:55;3.35;;;2.70;;
2129;SDS011;1071;52.544;13.374;2024-01-07T04:40:25;3.60;;;2.60;;
2129;SDS011;1071;52.544;13.374;2024-01-07T04:42:56;2.63;;;2.42;;
2129;SDS011;1071;52.544;13.374;2024-01-07T04:45:27;3.28;;;2.55;;
2129;SDS011;1071;52.544;13.374;2024-01-07T04:47:54;3.22;;;2.13;;
2129;SDS011;1071;52.544;13.374;2024-01-07T04:50:26;3.42;;;2.63;;
2129;SDS011;1071;52.544;13.374;2024-01-07T04:53:02;2.80;;;2.60;;
2129;SDS011;1071;52.544;13.374;2024-01-07T04:55:33;2.72;;;2.10;;
2129;SDS011;1071;52.544;13.374;2024-01-07T04:58:00;2.67;;;2.22;;
2129;SDS011;1071;52.544;13.374;2024-01-07T05:00:36;3.05;;;2.72;;
2129;SDS011;1071;52.544;13.374;2024-01-07T05:03:04;3.00;;;2.63;;
2129;SDS011;1071;52.544;13.374;2024-01-07T05:05:31;2.83;;;2.55;;
2129;SDS011;1071;52.544;13.374;2024-01-07T05:07:58;3.88;;;3.10;;
2129;SDS011;1071;52.544;13.374;2024-01-07T05:10:33;2.78;;;2.53;;
2129;SDS011;1071;52.544;13.374;2024-01-07T05:13:03;3.13;;;2.35;;
2129;SDS011;1071;52.544;13.374;2024-01-07T05:15:36;2.75;;;2.33;;
2129;SDS011;1071;52.544;13.374;2024-01-07T05:18:06;7.90;;;3.05;;
2129;SDS011;1071;52.544;13.374;2024-01-07T05:20:34;3.65;;;2.50;;
2129;SDS011;1071;52.544;13.374;2024-01-07T05:23:03;3.33;;;3.03;;
2129;SDS011;1071;52.544;13.374;2024-01-07T05:25:31;2.80;;;2.60;;
2129;SDS011;1071;52.544;13.374;2024-01-07T05:27:58;3.00;;;2.65;;
2129;SDS011;1071;52.544;13.374;2024-01-07T05:30:30;4.35;;;2.50;;
2129;SDS011;1071;52.544;13.374;2024-01-07T05:36:00;4.30;;;2.65;;
2129;SDS011;1071;52.544;13.374;2024-01-07T05:38:35;3.92;;;2.50;;
2129;SDS011;1071;52.544;13.374;2024-01-07T05:41:04;4.00;;;2.60;;
2129;SDS011;1071;52.544;13.374;2024-01-07T05:43:41;3.22;;;2.67;;
2129;SDS011;1071;52.544;13.374;2024-01-07T05:46:14;3.30;;;3.00;;
2129;SDS011;1071;52.544;13.374;2024-01-07T05:48:54;2.83;;;2.45;;
2129;SDS011;1071;52.544;13.374;2024-01-07T05:51:23;4.82;;;2.60;;
2129;SDS011;1071;52.544;13.374;2024-01-07T05:53:50;2.38;;;2.20;;
2129;SDS011;1071;52.544;13.374;2024-01-07T05:56:19;3.42;;;2.30;;
2129;SDS011;1071;52.544;13.374;2024-01-07T05:58:47;4.30;;;3.30;;
2129;SDS011;1071;52.544;13.374;2024-01-07T06:01:18;4.15;;;2.90;;
2129;SDS011;1071;52.544;13.374;2024-01-07T06:03:47;4.18;;;3.20;;
2129;SDS011;1071;52.544;13.374;2024-01-07T06:09:06;2.50;;;2.30;;
2129;SDS011;1071;52.544;13.374;2024-01-07T06:14:59;3.45;;;2.75;;
2129;SDS011;1071;52.544;13.374;2024-01-07T06:17:46;3.40;;;2.50;;
2129;SDS011;1071;52.544;13.374;2024-01-07T06:20:21;6.45;;;2.75;;
2129;SDS011;1071;52.544;13.374;2024-01-07T06:22:58;2.85;;;2.47;;
2129;SDS011;1071;52.544;13.374;2024-01-07T06:25:35;3.08;;;2.60;;
2129;SDS011;1071;52.544;13.374;2024-01-07T06:28:04;4.20;;;3.13;;
2129;SDS011;1071;52.544;13.374;2024-01-07T06:30:32;3.95;;;3.55;;
2129;SDS011;1071;52.544;13.374;2024-01-07T06:36:39;3.20;;;2.90;;
2129;SDS011;1071;52.544;13.374;2024-01-07T06:39:09;4.07;;;3.10;;
2129;SDS011;1071;52.544;13.374;2024-01-07T06:41:36;3.72;;;3.33;;
2129;SDS011;1071;52.544;13.374;2024-01-07T06:44:04;3.35;;;3.00;;
2129;SDS011;1071;52.544;13.374;2024-01-07T06:49:59;4.82;;;3.42;;
2129;SDS011;1071;52.544;13.374;2024-01-07T06:52:34;3.30;;;3.00;;
2129;SDS011;1071;52.544;13.374;2024-01-07T06:55:01;5.15;;;3.38;;
2129;SDS011;1071;52.544;13.374;2024-01-07T06:57:28;4.45;;;3.08;;
2129;SDS011;1071;52.544;13.374;2024-01-07T06:59:55;3.83;;;3.33;;
2129;SDS011;1071;52.544;13.374;2024-01-07T07:02:22;3.67;;;3.38;;
2129;SDS011;1071;52.544;13.374;2024-01-07T07:08:12;5.13;;;3.20;;
2129;SDS011;1071;52.544;13.374;2024-01-07T07:10:39;4.20;;;3.30;;
2129;SDS011;1071;52.544;13.374;2024-01-07T07:13:06;5.18;;;2.75;;
2129;SDS011;1071;52.544;13.374;2024-01-07T07:15:33;3.53;;;2.75;;
2129;SDS011;1071;52.544;13.374;2024-01-07T07:18:02;3.20;;;2.90;;
2129;SDS011;1071;52.544;13.374;2024-01-07T07:20:32;3.47;;;2.72;;
2129;SDS011;1071;52.544;13.374;2024-01-07T07:23:02;3.20;;;2.90;;
2129;SDS011;1071;52.544;13.374;2024-01-07T07:25:31;2.50;;;2.30;;
2129;SDS011;1071;52.544;13.374;2024-01-07T07:27:58;3.20;;;2.83;;
2129;SDS011;1071;52.544;13.374;2024-01-07T07:30:26;5.45;;;4.95;;
2129;SDS011;1071;52.544;13.374;2024-01-07T07:32:53;4.20;;;3.28;;
2129;SDS011;1071;52.544;13.374;2024-01-07T07:35:20;3.28;;;2.97;;
2129;SDS011;1071;52.544;13.374;2024-01-07T07:37:47;4.05;;;3.03;;
2129;SDS011;1071;52.544;13.374;2024-01-07T07:40:14;3.00;;;2.70;;
2129;SDS011;1071;52.544;13.374;2024-01-07T07:42:45;3.88;;;2.50;;
2129;SDS011;1071;52.544;13.374;2024-01-07T07:45:13;4.25;;;2.60;;
2129;SDS011;1071;52.544;13.374;2024-01-07T07:47:44;4.78;;;2.90;;
2129;SDS011;1071;52.544;13.374;2024-01-07T07:50:11;5.80;;;3.60;;
2129;SDS011;1071;52.544;13.374;2024-01-07T07:52:38;3.10;;;2.70;;
2129;SDS011;1071;52.544;13.374;2024-01-07T07:55:05;3.40;;;2.67;;
2129;SDS011;1071;52.544;13.374;2024-01-07T07:57:34;4.32;;;3.28;;
2129;SDS011;1071;52.544;13.374;2024-01-07T08:00:04;3.65;;;2.55;;
2129;SDS011;1071;52.544;13.374;2024-01-07T08:02:37;4.75;;;2.90;;
2129;SDS011;1071;52.544;13.374;2024-01-07T08:05:06;3.38;;;3.08;;
2129;SDS011;1071;52.544;13.374;2024-01-07T08:07:33;4.22;;;3.03;;
2129;SDS011;1071;52.544;13.374;2024-01-07T08:10:00;5.72;;;3.78;;
2129;SDS011;1071;52.544;13.374;2024-01-07T08:12:37;4.88;;;3.80;;
2129;SDS011;1071;52.544;13.374;2024-01-07T08:15:07;8.10;;;5.10;;
2129;SDS011;1071;52.544;13.374;2024-01-07T08:17:37;13.30;;;7.60;;
2129;SDS011;1071;52.544;13.374;2024-01-07T08:23:25;10.05;;;6.85;;
2129;SDS011;1071;52.544;13.374;2024-01-07T08:32:13;4.65;;;3.50;;
2129;SDS011;1071;52.544;13.374;2024-01-07T08:34:40;2.95;;;2.65;;
2129;SDS011;1071;52.544;13.374;2024-01-07T08:37:07;4.95;;;3.70;;
2129;SDS011;1071;52.544;13.374;2024-01-07T08:39:34;4.50;;;3.78;;
2129;SDS011;1071;52.544;13.374;2024-01-07T08:42:02;4.35;;;3.72;;
2129;SDS011;1071;52.544;13.374;2024-01-07T08:44:29;3.42;;;2.95;;
2129;SDS011;1071;52.544;13.374;2024-01-07T08:46:59;4.75;;;3.25;;
2129;SDS011;1071;52.544;13.374;2024-01-07T08:49:30;6.60;;;3.00;;
2129;SDS011;1071;52.544;13.374;2024-01-07T08:51:58;4.05;;;3.13;;
2129;SDS011;1071;52.544;13.374;2024-01-07T08:54:25;3.97;;;3.30;;
2129;SDS011;1071;52.544;13.374;2024-01-07T08:56:55;3.67;;;3.22;;
2129;SDS011;1071;52.544;13.374;2024-01-07T08:59:22;3.90;;;3.55;;
2129;SDS011;1071;52.544;13.374;2024-01-07T09:01:50;7.43;;;4.78;;
2129;SDS011;1071;52.544;13.374;2024-01-07T09:04:17;9.10;;;6.38;;
2129;SDS011;1071;52.544;13.374;2024-01-07T09:06:46;14.90;;;11.50;;
2129;SDS011;1071;52.544;13.374;2024-01-07T09:09:13;25.95;;;17.02;;
2129;SDS011;1071;52.544;13.374;2024-01-07T09:11:41;33.90;;;22.40;;
2129;SDS011;1071;52.544;13.374;2024-01-07T09:14:12;25.67;;;19.83;;
2129;SDS011;1071;52.544;13.374;2024-01-07T09:16:40;23.17;;;18.75;;
2129;SDS011;1071;52.544;13.374;2024-01-07T09:19:16;8.88;;;7.47;;
2129;SDS011;1071;52.544;13.374;2024-01-07T09:21:46;7.55;;;6.60;;
2129;SDS011;1071;52.544;13.374;2024-01-07T09:24:13;7.38;;;6.10;;
2129;SDS011;1071;52.544;13.374;2024-01-07T09:26:46;6.57;;;5.93;;
2129;SDS011;1071;52.544;13.374;2024-01-07T09:29:31;6.35;;;5.00;;
2129;SDS011;1071;52.544;13.374;2024-01-07T09:32:47;12.27;;;7.68;;
2129;SDS011;1071;52.544;13.374;2024-01-07T09:35:15;11.45;;;8.38;;
2129;SDS011;1071;52.544;13.374;2024-01-07T09:37:48;16.58;;;14.77;;
2129;SDS011;1071;52.544;13.374;2024-01-07T09:40:37;16.27;;;12.55;;
2129;SDS011;1071;52.544;13.374;2024-01-07T09:43:06;8.88;;;7.53;;
2129;SDS011;1071;52.544;13.374;2024-01-07T09:45:36;9.45;;;5.63;;
2129;SDS011;1071;52.544;13.374;2024-01-07T09:51:20;11.52;;;6.85;;
2129;SDS011;1071;52.544;13.374;2024-01-07T09:53:49;10.13;;;6.40;;
2129;SDS011;1071;52.544;13.374;2024-01-07T09:57:22;14.65;;;9.30;;
2129;SDS011;1071;52.544;13.374;2024-01-07T09:59:41;14.60;;;8.30;;
2129;SDS011;1071;52.544;13.374;2024-01-07T10:02:12;14.85;;;9.95;;
2129;SDS011;1071;52.544;13.374;2024-01-07T10:04:51;16.35;;;11.10;;
2129;SDS011;1071;52.544;13.374;2024-01-07T10:07:22;15.55;;;8.93;;
2129;SDS011;1071;52.544;13.374;2024-01-07T10:09:52;14.93;;;10.50;;
2129;SDS011;1071;52.544;13.374;2024-01-07T10:12:27;16.08;;;9.68;;
2129;SDS011;1071;52.544;13.374;2024-01-07T10:15:07;9.20;;;6.60;;
2129;SDS011;1071;52.544;13.374;2024-01-07T10:17:41;6.80;;;5.05;;
2129;SDS011;1071;52.544;13.374;2024-01-07T10:20:33;6.95;;;6.28;;
2129;SDS011;1071;52.544;13.374;2024-01-07T10:23:07;6.78;;;5.88;;
2129;SDS011;1071;52.544;13.374;2024-01-07T10:32:32;6.38;;;5.65;;
2129;SDS011;1071;52.544;13.374;2024-01-07T10:35:11;6.78;;;5.63;;
2129;SDS011;1071;52.544;13.374;2024-01-07T10:37:46;6.70;;;6.00;;
2129;SDS011;1071;52.544;13.374;2024-01-07T10:40:19;11.82;;;6.32;;
2129;SDS011;1071;52.544;13.374;2024-01-07T10:42:55;9.07;;;8.13;;
2129;SDS011;1071;52.544;13.374;2024-01-07T10:45:23;7.53;;;6.90;;
2129;SDS011;1071;52.544;13.374;2024-01-07T10:47:57;8.77;;;6.25;;
2129;SDS011;1071;52.544;13.374;2024-01-07T10:50:33;6.57;;;5.97;;
2129;SDS011;1071;52.544;13.374;2024-01-07T10:53:06;6.57;;;5.97;;
2129;SDS011;1071;52.544;13.374;2024-01-07T11:01:55;5.53;;;4.93;;
2129;SDS011;1071;52.544;13.374;2024-01-07T11:04:23;4.30;;;4.00;;
2129;SDS011;1071;52.544;13.374;2024-01-07T11:07:03;9.68;;;7.93;;
2129;SDS011;1071;52.544;13.374;2024-01-07T11:10:04;8.57;;;7.68;;
2129;SDS011;1071;52.544;13.374;2024-01-07T11:13:16;6.03;;;5.43;;
2129;SDS011;1071;52.544;13.374;2024-01-07T11:16:01;6.80;;;5.55;;
2129;SDS011;1071;52.544;13.374;2024-01-07T11:18:38;5.85;;;5.25;;
2129;SDS011;1071;52.544;13.374;2024-01-07T11:21:30;7.50;;;6.18;;
2129;SDS011;1071;52.544;13.374;2024-01-07T11:24:06;6.28;;;5.65;;
2129;SDS011;1071;52.544;13.374;2024-01-07T11:27:10;5.35;;;4.95;;
2129;SDS011;1071;52.544;13.374;2024-01-07T11:29:53;5.57;;;5.07;;
2129;SDS011;1071;52.544;13.374;2024-01-07T11:32:35;4.63;;;4.15;;
2129;SDS011;1071;52.544;13.374;2024-01-07T11:35:08;5.75;;;4.30;;
2129;SDS011;1071;52.544;13.374;2024-01-07T11:37:35;5.68;;;5.22;;
2129;SDS011;1071;52.544;13.374;2024-01-07T11:43:23;7.53;;;5.97;;
2129;SDS011;1071;52.544;13.374;2024-01-07T11:49:06;7.85;;;6.30;;
2129;SDS011;1071;52.544;13.374;2024-01-07T11:51:42;8.73;;;4.68;;
2129;SDS011;1071;52.544;13.374;2024-01-07T11:54:12;6.05;;;5.55;;
2129;SDS011;1071;52.544;13.374;2024-01-07T11:56:50;7.43;;;6.80;;
2129;SDS011;1071;52.544;13.374;2024-01-07T11:59:30;9.15;;;7.47;;
2129;SDS011;1071;52.544;13.374;2024-01-07T12:02:05;8.07;;;7.32;;
2129;SDS011;1071;52.544;13.374;2024-01-07T12:04:39;8.95;;;8.18;;
2129;SDS011;1071;52.544;13.374;2024-01-07T12:07:06;8.63;;;6.60;;
2129;SDS011;1071;52.544;13.374;2024-01-07T12:09:35;6.97;;;6.15;;
2129;SDS011;1071;52.544;13.374;2024-01-07T12:12:04;17.23;;;12.88;;
2129;SDS011;1071;52.544;13.374;2024-01-07T12:14:35;19.13;;;12.95;;
2129;SDS011;1071;52.544;13.374;2024-01-07T12:17:09;16.58;;;14.43;;
2129;SDS011;1071;52.544;13.374;2024-01-07T12:22:26;8.93;;;7.88;;
2129;SDS011;1071;52.544;13.374;2024-01-07T12:25:01;19.13;;;16.70;;
2129;SDS011;1071;52.544;13.374;2024-01-07T12:27:45;17.48;;;15.57;;
2129;SDS011;1071;52.544;13.374;2024-01-07T12:30:20;16.98;;;14.52;;
2129;SDS011;1071;52.544;13.374;2024-01-07T12:32:53;15.02;;;13.63;;
2129;SDS011;1071;52.544;13.374;2024-01-07T12:41:27;23.73;;;21.52;;
2129;SDS011;1071;52.544;13.374;2024-01-07T12:44:11;20.38;;;18.63;;
2129;SDS011;1071;52.544;13.374;2024-01-07T12:46:47;20.42;;;18.50;;
2129;SDS011;1071;52.544;13.374;2024-01-07T12:49:23;14.80;;;13.45;;
2129;SDS011;1071;52.544;13.374;2024-01-07T12:52:00;9.50;;;8.60;;
2129;SDS011;1071;52.544;13.374;2024-01-07T12:54:38;9.98;;;7.90;;
2129;SDS011;1071;52.544;13.374;2024-01-07T13:00:38;7.40;;;5.95;;
2129;SDS011;1071;52.544;13.374;2024-01-07T13:03:20;6.53;;;5.93;;
2129;SDS011;1071;52.544;13.374;2024-01-07T13:05:52;6.93;;;6.20;;
2129;SDS011;1071;52.544;13.374;2024-01-07T13:08:26;6.70;;;6.10;;
2129;SDS011;1071;52.544;13.374;2024-01-07T13:10:56;5.60;;;5.00;;
2129;SDS011;1071;52.544;13.374;2024-01-07T13:13:27;5.57;;;5.07;;
2129;SDS011;1071;52.544;13.374;2024-01-07T13:15:59;5.50;;;4.70;;
2129;SDS011;1071;52.544;13.374;2024-01-07T13:20:46;5.88;;;5.38;;
2129;SDS011;1071;52.544;13.374;2024-01-07T13:22:19;6.40;;;5.80;;
2129;SDS011;1071;52.544;13.374;2024-01-07T13:24:53;4.85;;;4.45;;
2129;SDS011;1071;52.544;13.374;2024-01-07T13:27:32;6.80;;;5.10;;
2129;SDS011;1071;52.544;13.374;2024-01-07T13:33:44;8.27;;;7.53;;
2129;SDS011;1071;52.544;13.374;2024-01-07T13:36:47;10.32;;;9.27;;
2129;SDS011;1071;52.544;13.374;2024-01-07T13:39:19;10.25;;;7.30;;
2129;SDS011;1071;52.544;13.374;2024-01-07T13:41:55;7.35;;;6.32;;
2129;SDS011;1071;52.544;13.374;2024-01-07T13:47:30;8.23;;;7.53;;
2129;SDS011;1071;52.544;13.374;2024-01-07T13:50:24;10.70;;;9.70;;
2129;SDS011;1071;52.544;13.374;2024-01-07T13:53:05;8.88;;;8.07;;
2129;SDS011;1071;52.544;13.374;2024-01-07T13:55:37;10.18;;;9.35;;
2129;SDS011;1071;52.544;13.374;2024-01-07T13:58:11;10.43;;;9.63;;
2129;SDS011;1071;52.544;13.374;2024-01-07T14:00:55;14.88;;;13.55;;
2129;SDS011;1071;52.544;13.374;2024-01-07T14:03:27;10.15;;;9.25;;
2129;SDS011;1071;52.544;13.374;2024-01-07T14:06:11;15.27;;;14.07;;
2129;SDS011;1071;52.544;13.374;2024-01-07T14:08:41;21.15;;;19.38;;
2129;SDS011;1071;52.544;13.374;2024-01-07T14:11:14;9.93;;;9.18;;
2129;SDS011;1071;52.544;13.374;2024-01-07T14:13:49;7.32;;;6.72;;
2129;SDS011;1071;52.544;13.374;2024-01-07T14:16:32;8.02;;;7.32;;
2129;SDS011;1071;52.544;13.374;2024-01-07T14:22:11;8.15;;;5.47;;
2129;SDS011;1071;52.544;13.374;2024-01-07T14:25:09;7.72;;;5.95;;
2129;SDS011;1071;52.544;13.374;2024-01-07T14:27:44;6.63;;;6.03;;
2129;SDS011;1071;52.544;13.374;2024-01-07T14:30:21;6.47;;;5.88;;
2129;SDS011;1071;52.544;13.374;2024-01-07T14:36:41;8.45;;;7.68;;
2129;SDS011;1071;52.544;13.374;2024-01-07T14:39:09;5.85;;;5.32;;
2129;SDS011;1071;52.544;13.374;2024-01-07T14:41:44;5.75;;;5.10;;
2129;SDS011;1071;52.544;13.374;2024-01-07T14:44:17;5.55;;;4.53;;
2129;SDS011;1071;52.544;13.374;2024-01-07T14:46:44;4.60;;;4.15;;
2129;SDS011;1071;52.544;13.374;2024-01-07T14:49:19;7.18;;;6.53;;
2129;SDS011;1071;52.544;13.374;2024-01-07T14:52:04;12.60;;;9.63;;
2129;SDS011;1071;52.544;13.374;2024-01-07T14:54:51;8.52;;;7.78;;
2129;SDS011;1071;52.544;13.374;2024-01-07T14:57:45;6.40;;;5.45;;
2129;SDS011;1071;52.544;13.374;2024-01-07T15:00:16;8.30;;;7.57;;
2129;SDS011;1071;52.544;13.374;2024-01-07T15:02:52;10.27;;;9.15;;
2129;SDS011;1071;52.544;13.374;2024-01-07T15:05:31;7.72;;;7.03;;
2129;SDS011;1071;52.544;13.374;2024-01-07T15:08:23;7.43;;;6.70;;
2129;SDS011;1071;52.544;13.374;2024-01-07T15:10:53;7.28;;;6.55;;
2129;SDS011;1071;52.544;13.374;2024-01-07T15:13:32;4.82;;;4.43;;
2129;SDS011;1071;52.544;13.374;2024-01-07T15:16:05;7.05;;;6.35;;
2129;SDS011;1071;52.544;13.374;2024-01-07T15:18:44;7.80;;;7.20;;
2129;SDS011;1071;52.544;13.374;2024-01-07T15:21:33;8.25;;;6.95;;
2129;SDS011;1071;52.544;13.374;2024-01-07T15:24:07;12.30;;;11.10;;
2129;SDS011;1071;52.544;13.374;2024-01-07T15:26:59;12.85;;;11.65;;
2129;SDS011;1071;52.544;13.374;2024-01-07T15:29:38;14.65;;;13.45;;
2129;SDS011;1071;52.544;13.374;2024-01-07T15:32:31;8.65;;;7.90;;
2129;SDS011;1071;52.544;13.374;2024-01-07T15:35:10;8.10;;;7.07;;
2129;SDS011;1071;52.544;13.374;2024-01-07T15:38:06;9.30;;;8.40;;
2129;SDS011;1071;52.544;13.374;2024-01-07T15:41:27;10.80;;;9.77;;
2129;SDS011;1071;52.544;13.374;2024-01-07T15:43:55;11.73;;;10.07;;
2129;SDS011;1071;52.544;13.374;2024-01-07T15:53:08;11.45;;;10.45;;
2129;SDS011;1071;52.544;13.374;2024-01-07T15:55:35;17.75;;;16.25;;
2129;SDS011;1071;52.544;13.374;2024-01-07T15:58:15;13.63;;;12.43;;
2129;SDS011;1071;52.544;13.374;2024-01-07T16:00:56;20.73;;;19.13;;
2129;SDS011;1071;52.544;13.374;2024-01-07T16:03:28;13.88;;;12.63;;
2129;SDS011;1071;52.544;13.374;2024-01-07T16:06:01;10.60;;;9.63;;
2129;SDS011;1071;52.544;13.374;2024-01-07T16:08:57;9.75;;;8.30;;
2129;SDS011;1071;52.544;13.374;2024-01-07T16:11:33;6.70;;;6.10;;
2129;SDS011;1071;52.544;13.374;2024-01-07T16:14:11;10.55;;;9.55;;
2129;SDS011;1071;52.544;13.374;2024-01-07T16:16:57;8.95;;;8.05;;
2129;SDS011;1071;52.544;13.374;2024-01-07T16:19:38;9.30;;;7.47;;
2129;SDS011;1071;52.544;13.374;2024-01-07T16:22:30;8.60;;;7.80;;
2129;SDS011;1071;52.544;13.374;2024-01-07T16:28:31;12.13;;;10.98;;
2129;SDS011;1071;52.544;13.374;2024-01-07T16:34:45;15.07;;;13.27;;
2129;SDS011;1071;52.544;13.374;2024-01-07T16:37:50;15.57;;;14.27;;
2129;SDS011;1071;52.544;13.374;2024-01-07T16:40:56;11.20;;;9.82;;
2129;SDS011;1071;52.544;13.374;2024-01-07T16:43:29;10.63;;;9.63;;
2129;SDS011;1071;52.544;13.374;2024-01-07T16:46:01;9.60;;;8.23;;
2129;SDS011;1071;52.544;13.374;2024-01-07T16:48:38;10.10;;;9.10;;
2129;SDS011;1071;52.544;13.374;2024-01-07T16:51:10;12.00;;;10.95;;
2129;SDS011;1071;52.544;13.374;2024-01-07T16:53:52;11.27;;;10.27;;
2129;SDS011;1071;52.544;13.374;2024-01-07T17:00:07;13.27;;;11.40;;
2129;SDS011;1071;52.544;13.374;2024-01-07T17:02:56;12.13;;;10.85;;
2129;SDS011;1071;52.544;13.374;2024-01-07T17:05:31;12.68;;;11.40;;
2129;SDS011;1071;52.544;13.374;2024-01-07T17:08:27;12.20;;;11.10;;
2129;SDS011;1071;52.544;13.374;2024-01-07T17:10:58;10.88;;;9.07;;
2129;SDS011;1071;52.544;13.374;2024-01-07T17:13:41;9.50;;;8.60;;
2129;SDS011;1071;52.544;13.374;2024-01-07T17:16:15;10.63;;;9.48;;
2129;SDS011;1071;52.544;13.374;2024-01-07T17:19:04;10.23;;;9.32;;
2129;SDS011;1071;52.544;13.374;2024-01-07T17:22:03;13.80;;;12.23;;
2129;SDS011;1071;52.544;13.374;2024-01-07T17:24:36;26.92;;;22.65;;
2129;SDS011;1071;52.544;13.374;2024-01-07T17:27:13;19.60;;;17.58;;
2129;SDS011;1071;52.544;13.374;2024-01-07T17:30:01;18.05;;;15.70;;
2129;SDS011;1071;52.544;13.374;2024-01-07T17:32:40;70.53;;;40.38;;
2129;SDS011;1071;52.544;13.374;2024-01-07T17:35:22;64.47;;;36.42;;
2129;SDS011;1071;52.544;13.374;2024-01-07T17:37:57;172.70;;;78.82;;
2129;SDS011;1071;52.544;13.374;2024-01-07T17:40:48;197.85;;;89.25;;
2129;SDS011;1071;52.544;13.374;2024-01-07T17:43:21;130.13;;;67.32;;
2129;SDS011;1071;52.544;13.374;2024-01-07T17:46:11;54.25;;;35.10;;